Weather History for Waseca, MN

Change the Weather History Date:

Monday, November 19, 2012

  Actual Average Record
Temperature  
Mean Temperature 48 °F -  
Max Temperature 62 °F 40 °F 65 °F (1930)
Min Temperature 33 °F 22 °F -4 °F (1932)
Degree Days  
Heating Degree Days 18    
Moisture  
Dew Point 34 °F    
Average Humidity 53    
Maximum Humidity 87    
Minimum Humidity 36    
Precipitation  
Precipitation 0.00 in - - ()
Sea Level Pressure  
Sea Level Pressure 30.06 in    
Wind  
Wind Speed 12 mph (SSE)    
Max Wind Speed 18 mph    
Max Gust Speed 25 mph    
Visibility 10 miles    
Events      
Averages and records for this station are not official NWS values.
T = Trace of Precipitation, MM = Missing Value Source: NWS Daily Summary

Daily Weather History Graph

Daily Weather History Graph

Search for Another Location

Airport:

Trip Planner

Search our weather history database for the weather conditions in past years. The results will help you decide how hot, cold, wet, or windy it might be!

Date:

Astronomy

Nov. 19, 2012 Rise Set
Actual Time 7:15 AM CST 4:43 PM CST
Civil Twilight 6:43 AM CST 5:15 PM CST
Nautical Twilight 6:08 AM CST 5:50 PM CST
Astronomical Twilight 5:34 AM CST 6:25 PM CST
Moon 12:13 PM CST 11:17 PM CST
Length of Visible Light 10h 31m
Length of Day
9h 28m
Waxing Crescent, 41% of the Moon is Illuminated
Nov 19
Waxing Crescent
Nov 20
First Quarter
Nov 28
Full
Dec 6
Last Quarter
Dec 13
New

Hourly Weather History & Observations

Time (CST) Temp. Windchill Dew Point Humidity Pressure Visibility Wind Dir Wind Speed Gust Speed Precip Events Conditions
12:13 AM 53.6 °F - 32.0 °F 44% 30.11 in 10.0 mi SSE 17.3 mph - N/A   Overcast
12:33 AM 53.6 °F - 32.0 °F 44% 30.10 in 10.0 mi SSE 18.4 mph - N/A   Overcast
12:53 AM 53.6 °F - 32.0 °F 44% 30.10 in 10.0 mi SSE 17.3 mph 24.2 mph N/A   Overcast
1:13 AM 53.6 °F - 32.0 °F 44% 30.09 in 10.0 mi SSE 17.3 mph 23.0 mph N/A   Overcast
1:32 AM 53.6 °F - 32.0 °F 44% 30.08 in 10.0 mi SSE 16.1 mph 25.3 mph N/A   Overcast
1:53 AM 53.6 °F - 32.0 °F 44% 30.09 in 10.0 mi SSE 16.1 mph - N/A   Overcast
2:13 AM 53.6 °F - 32.0 °F 44% 30.09 in 10.0 mi SSE 16.1 mph - N/A   Overcast
2:33 AM 53.6 °F - 32.0 °F 44% 30.08 in 10.0 mi SSE 15.0 mph 19.6 mph N/A   Overcast
2:53 AM 53.6 °F - 32.0 °F 44% 30.08 in 10.0 mi SSE 11.5 mph - N/A   Overcast
3:13 AM 51.8 °F - 32.0 °F 47% 30.08 in 10.0 mi SSE 9.2 mph - N/A   Overcast
3:33 AM 51.8 °F - 32.0 °F 47% 30.08 in 10.0 mi SSE 10.4 mph - N/A   Mostly Cloudy
3:53 AM 51.8 °F - 32.0 °F 47% 30.08 in 10.0 mi SSE 12.7 mph 16.1 mph N/A   Mostly Cloudy
4:13 AM 51.8 °F - 32.0 °F 47% 30.07 in 10.0 mi SSE 13.8 mph 19.6 mph N/A   Overcast
4:33 AM 50.0 °F - 32.0 °F 50% 30.07 in 10.0 mi SE 11.5 mph 17.3 mph N/A   Mostly Cloudy
4:53 AM 50.0 °F - 32.0 °F 50% 30.07 in 10.0 mi SE 12.7 mph 16.1 mph N/A   Overcast
5:13 AM 50.0 °F - 33.8 °F 54% 30.06 in 10.0 mi SSE 15.0 mph - N/A   Mostly Cloudy
5:33 AM 50.0 °F - 33.8 °F 54% 30.06 in 10.0 mi SSE 11.5 mph - N/A   Scattered Clouds
5:53 AM 50.0 °F - 33.8 °F 54% 30.06 in 10.0 mi SSE 13.8 mph - N/A   Scattered Clouds
6:13 AM 48.2 °F - 33.8 °F 58% 30.06 in 10.0 mi SE 11.5 mph - N/A   Mostly Cloudy
6:33 AM 50.0 °F - 35.6 °F 58% 30.06 in 10.0 mi SSE 9.2 mph 16.1 mph N/A   Overcast
6:53 AM 50.0 °F - 35.6 °F 58% 30.06 in 10.0 mi SSE 11.5 mph - N/A   Overcast
7:33 AM 50.0 °F - 35.6 °F 58% 30.05 in 10.0 mi SSE 9.2 mph - N/A   Overcast
7:53 AM 48.2 °F - 33.8 °F 58% 30.06 in 10.0 mi SSE 10.4 mph - N/A   Mostly Cloudy
8:13 AM 50.0 °F - 33.8 °F 54% 30.06 in 10.0 mi SSE 10.4 mph - N/A   Scattered Clouds
8:33 AM 50.0 °F - 35.6 °F 58% 30.06 in 10.0 mi SSE 10.4 mph - N/A   Clear
8:53 AM 51.8 °F - 35.6 °F 54% 30.05 in 10.0 mi SSE 11.5 mph - N/A   Scattered Clouds
9:13 AM 53.6 °F - 35.6 °F 51% 30.05 in 10.0 mi SSE 16.1 mph 20.7 mph N/A   Clear
9:33 AM 53.6 °F - 35.6 °F 51% 30.06 in 10.0 mi South 15.0 mph 20.7 mph N/A   Clear
9:53 AM 53.6 °F - 33.8 °F 47% 30.06 in 10.0 mi South 16.1 mph - N/A   Clear
10:13 AM 55.4 °F - 33.8 °F 44% 30.06 in 10.0 mi South 15.0 mph 20.7 mph N/A   Clear
10:33 AM 55.4 °F - 33.8 °F 44% 30.05 in 10.0 mi South 16.1 mph - N/A   Clear
10:53 AM 55.4 °F - 33.8 °F 44% 30.05 in 10.0 mi South 13.8 mph 18.4 mph N/A   Clear
11:13 AM 59.0 °F - 35.6 °F 42% 30.05 in 10.0 mi South 12.7 mph - N/A   Clear
11:34 AM 59.0 °F - 35.6 °F 42% 30.05 in 10.0 mi South 12.7 mph - N/A   Clear
11:53 AM 59.0 °F - 33.8 °F 39% 30.05 in 10.0 mi SSW 11.5 mph - N/A   Clear
12:13 PM 59.0 °F - 33.8 °F 39% 30.04 in 10.0 mi South 10.4 mph - N/A   Clear
12:33 PM 59.0 °F - 33.8 °F 39% 30.03 in 10.0 mi SSW 13.8 mph - N/A   Clear
12:53 PM 60.8 °F - 33.8 °F 36% 30.03 in 10.0 mi SSW 10.4 mph 17.3 mph N/A   Clear
1:13 PM 60.8 °F - 33.8 °F 36% 30.03 in 10.0 mi SSW 10.4 mph - N/A   Clear
1:33 PM 62.6 °F - 35.6 °F 37% 30.02 in 10.0 mi South 8.1 mph 17.3 mph N/A   Clear
1:53 PM 62.6 °F - 35.6 °F 37% 30.02 in 10.0 mi SSW 9.2 mph - N/A   Clear
2:13 PM 62.6 °F - 35.6 °F 37% 30.01 in 10.0 mi South 12.7 mph - N/A   Clear
2:33 PM 62.6 °F - 35.6 °F 37% 30.01 in 10.0 mi South 11.5 mph - N/A   Clear
2:53 PM 62.6 °F - 35.6 °F 37% 30.01 in 10.0 mi South 10.4 mph - N/A   Clear
3:13 PM 60.8 °F - 35.6 °F 39% 30.02 in 10.0 mi South 6.9 mph - N/A   Clear
3:33 PM 60.8 °F - 35.6 °F 39% 30.02 in 10.0 mi South 5.8 mph - N/A   Clear
3:53 PM 59.0 °F - 35.6 °F 42% 30.03 in 10.0 mi South 8.1 mph - N/A   Clear
4:13 PM 59.0 °F - 37.4 °F 45% 30.03 in 10.0 mi South 5.8 mph - N/A   Clear
4:33 PM 55.4 °F - 35.6 °F 47% 30.03 in 10.0 mi SSE 4.6 mph - N/A   Clear
4:53 PM 53.6 °F - 35.6 °F 51% 30.03 in 10.0 mi Calm Calm - N/A   Clear
5:13 PM 53.6 °F - 37.4 °F 54% 30.04 in 10.0 mi Calm Calm - N/A   Clear
5:34 PM 53.6 °F - 37.4 °F 54% 30.04 in 10.0 mi Calm Calm - N/A   Clear
5:53 PM 46.4 °F 44.3 °F 33.8 °F 62% 30.04 in 10.0 mi ESE 4.6 mph - N/A   Clear
6:14 PM 46.4 °F 45.2 °F 33.8 °F 62% 30.05 in 10.0 mi ESE 3.5 mph - N/A   Clear
6:33 PM 48.2 °F - 33.8 °F 58% 30.06 in 10.0 mi Calm Calm - N/A   Clear
6:53 PM 44.6 °F - 32.0 °F 61% 30.06 in 10.0 mi Calm Calm - N/A   Clear
7:14 PM 44.6 °F 42.2 °F 35.6 °F 71% 30.06 in 10.0 mi SE 4.6 mph - N/A   Clear
7:53 PM 41.0 °F - 33.8 °F 76% 30.06 in 10.0 mi Calm Calm - N/A   Clear
8:13 PM 44.6 °F - 35.6 °F 71% 30.06 in 10.0 mi Calm Calm - N/A   Clear
8:33 PM 44.6 °F - 35.6 °F 71% 30.07 in 10.0 mi Calm Calm - N/A   Clear
9:13 PM 41.0 °F - 33.8 °F 76% 30.06 in 10.0 mi Calm Calm - N/A   Clear
9:33 PM 41.0 °F - 33.8 °F 76% 30.06 in 10.0 mi Calm Calm - N/A   Clear
9:53 PM 39.2 °F - 33.8 °F 81% 30.05 in 7.0 mi Calm Calm - N/A   Clear
10:13 PM 37.4 °F - 32.0 °F 81% 30.06 in 7.0 mi Calm Calm - N/A   Clear
10:33 PM 35.6 °F 32.8 °F 32.0 °F 87% 30.07 in 7.0 mi West 3.5 mph - N/A   Clear
10:53 PM 37.4 °F - 32.0 °F 81% 30.07 in 10.0 mi Calm Calm - N/A   Clear
11:13 PM 35.6 °F 32.8 °F 32.0 °F 87% 30.08 in 7.0 mi West 3.5 mph - N/A   Clear
11:33 PM 33.8 °F - 30.2 °F 87% 30.09 in 7.0 mi Calm Calm - N/A   Clear
11:53 PM 35.6 °F - 32.0 °F 87% 30.09 in 7.0 mi Calm Calm - N/A   Clear